sensor_id;sensor_type;location;lat;lon;timestamp;pressure;altitude;pressure_sealevel;temperature;humidity
47738;BME280;33502;47.182;27.506;2023-07-20T00:00:17;99501.47;;;19.13;100.00
47738;BME280;33502;47.182;27.506;2023-07-20T00:02:43;99506.69;;;19.15;100.00
47738;BME280;33502;47.182;27.506;2023-07-20T00:05:09;99505.28;;;19.21;100.00
47738;BME280;33502;47.182;27.506;2023-07-20T00:07:35;99502.16;;;19.25;100.00
47738;BME280;33502;47.182;27.506;2023-07-20T00:10:00;99491.16;;;19.28;100.00
47738;BME280;33502;47.182;27.506;2023-07-20T00:12:26;99492.84;;;19.29;100.00
47738;BME280;33502;47.182;27.506;2023-07-20T00:14:51;99494.81;;;19.27;100.00
47738;BME280;33502;47.182;27.506;2023-07-20T00:17:19;99497.81;;;19.24;100.00
47738;BME280;33502;47.182;27.506;2023-07-20T00:19:44;99486.91;;;19.16;100.00
47738;BME280;33502;47.182;27.506;2023-07-20T00:22:10;99484.34;;;19.05;100.00
47738;BME280;33502;47.182;27.506;2023-07-20T00:24:36;99484.66;;;18.92;100.00
47738;BME280;33502;47.182;27.506;2023-07-20T00:27:01;99480.34;;;18.79;100.00
47738;BME280;33502;47.182;27.506;2023-07-20T00:29:29;99473.44;;;18.67;100.00
47738;BME280;33502;47.182;27.506;2023-07-20T00:31:55;99464.94;;;18.62;100.00
47738;BME280;33502;47.182;27.506;2023-07-20T00:34:22;99468.91;;;18.58;100.00
47738;BME280;33502;47.182;27.506;2023-07-20T00:36:48;99465.63;;;18.54;100.00
47738;BME280;33502;47.182;27.506;2023-07-20T00:39:14;99468.75;;;18.50;100.00
47738;BME280;33502;47.182;27.506;2023-07-20T00:41:40;99462.66;;;18.48;100.00
47738;BME280;33502;47.182;27.506;2023-07-20T00:44:05;99466.59;;;18.44;100.00
47738;BME280;33502;47.182;27.506;2023-07-20T00:46:31;99467.00;;;18.39;100.00
47738;BME280;33502;47.182;27.506;2023-07-20T00:48:59;99481.66;;;18.35;100.00
47738;BME280;33502;47.182;27.506;2023-07-20T00:51:26;99482.81;;;18.32;100.00
47738;BME280;33502;47.182;27.506;2023-07-20T00:53:52;99482.22;;;18.29;100.00
47738;BME280;33502;47.182;27.506;2023-07-20T00:56:18;99484.31;;;18.25;100.00
47738;BME280;33502;47.182;27.506;2023-07-20T00:58:44;99470.22;;;18.23;100.00
47738;BME280;33502;47.182;27.506;2023-07-20T01:01:10;99472.03;;;18.23;100.00
47738;BME280;33502;47.182;27.506;2023-07-20T01:03:36;99469.50;;;18.21;100.00
47738;BME280;33502;47.182;27.506;2023-07-20T01:08:32;99464.53;;;18.16;100.00
47738;BME280;33502;47.182;27.506;2023-07-20T01:11:06;99457.28;;;18.07;100.00
47738;BME280;33502;47.182;27.506;2023-07-20T01:13:36;99453.47;;;18.00;100.00
47738;BME280;33502;47.182;27.506;2023-07-20T01:16:02;99442.56;;;17.92;100.00
47738;BME280;33502;47.182;27.506;2023-07-20T01:18:28;99444.22;;;17.83;100.00
47738;BME280;33502;47.182;27.506;2023-07-20T01:20:55;99431.34;;;17.77;100.00
47738;BME280;33502;47.182;27.506;2023-07-20T01:33:15;99409.19;;;17.75;100.00
47738;BME280;33502;47.182;27.506;2023-07-20T01:35:42;99408.47;;;17.73;100.00
47738;BME280;33502;47.182;27.506;2023-07-20T01:38:09;99408.78;;;17.70;100.00
47738;BME280;33502;47.182;27.506;2023-07-20T01:40:37;99413.13;;;17.71;100.00
47738;BME280;33502;47.182;27.506;2023-07-20T01:43:03;99413.41;;;17.68;100.00
47738;BME280;33502;47.182;27.506;2023-07-20T01:45:29;99409.75;;;17.69;100.00
47738;BME280;33502;47.182;27.506;2023-07-20T01:47:56;99415.09;;;17.69;100.00
47738;BME280;33502;47.182;27.506;2023-07-20T01:50:22;99412.28;;;17.70;100.00
47738;BME280;33502;47.182;27.506;2023-07-20T01:52:47;99420.72;;;17.66;100.00
47738;BME280;33502;47.182;27.506;2023-07-20T01:55:13;99423.66;;;17.63;100.00
47738;BME280;33502;47.182;27.506;2023-07-20T01:57:39;99428.19;;;17.62;100.00
47738;BME280;33502;47.182;27.506;2023-07-20T02:00:05;99430.25;;;17.58;100.00
47738;BME280;33502;47.182;27.506;2023-07-20T02:02:39;99429.69;;;17.55;100.00
47738;BME280;33502;47.182;27.506;2023-07-20T02:05:06;99435.88;;;17.55;100.00
47738;BME280;33502;47.182;27.506;2023-07-20T02:07:33;99438.53;;;17.55;100.00
47738;BME280;33502;47.182;27.506;2023-07-20T02:09:58;99439.97;;;17.59;100.00
47738;BME280;33502;47.182;27.506;2023-07-20T02:12:24;99436.47;;;17.59;100.00
47738;BME280;33502;47.182;27.506;2023-07-20T02:14:50;99431.88;;;17.50;100.00
47738;BME280;33502;47.182;27.506;2023-07-20T02:17:16;99434.63;;;17.38;100.00
47738;BME280;33502;47.182;27.506;2023-07-20T02:19:42;99428.84;;;17.33;100.00
47738;BME280;33502;47.182;27.506;2023-07-20T02:22:07;99430.81;;;17.31;100.00
47738;BME280;33502;47.182;27.506;2023-07-20T02:24:33;99439.09;;;17.28;100.00
47738;BME280;33502;47.182;27.506;2023-07-20T02:26:59;99443.72;;;17.26;100.00
47738;BME280;33502;47.182;27.506;2023-07-20T02:29:25;99437.38;;;17.27;100.00
47738;BME280;33502;47.182;27.506;2023-07-20T02:31:50;99441.50;;;17.31;100.00
47738;BME280;33502;47.182;27.506;2023-07-20T02:34:16;99449.53;;;17.31;100.00
47738;BME280;33502;47.182;27.506;2023-07-20T02:36:41;99448.66;;;17.31;100.00
47738;BME280;33502;47.182;27.506;2023-07-20T02:39:08;99448.41;;;17.34;100.00
47738;BME280;33502;47.182;27.506;2023-07-20T02:41:34;99441.22;;;17.34;100.00
47738;BME280;33502;47.182;27.506;2023-07-20T02:44:00;99443.19;;;17.32;100.00
47738;BME280;33502;47.182;27.506;2023-07-20T02:46:26;99433.47;;;17.31;100.00
47738;BME280;33502;47.182;27.506;2023-07-20T02:48:52;99430.81;;;17.31;100.00
47738;BME280;33502;47.182;27.506;2023-07-20T02:51:17;99439.81;;;17.30;100.00
47738;BME280;33502;47.182;27.506;2023-07-20T02:53:43;99449.53;;;17.31;100.00
47738;BME280;33502;47.182;27.506;2023-07-20T02:56:08;99451.94;;;17.34;100.00
47738;BME280;33502;47.182;27.506;2023-07-20T02:58:34;99461.41;;;17.38;100.00
47738;BME280;33502;47.182;27.506;2023-07-20T03:01:02;99457.75;;;17.39;100.00
47738;BME280;33502;47.182;27.506;2023-07-20T03:03:28;99466.38;;;17.43;100.00
47738;BME280;33502;47.182;27.506;2023-07-20T03:05:54;99464.13;;;17.48;100.00
47738;BME280;33502;47.182;27.506;2023-07-20T03:08:21;99464.47;;;17.55;100.00
47738;BME280;33502;47.182;27.506;2023-07-20T03:10:47;99452.53;;;17.59;100.00
47738;BME280;33502;47.182;27.506;2023-07-20T03:13:13;99453.94;;;17.63;100.00
47738;BME280;33502;47.182;27.506;2023-07-20T03:15:39;99456.25;;;17.68;100.00
47738;BME280;33502;47.182;27.506;2023-07-20T03:18:05;99461.19;;;17.72;100.00
47738;BME280;33502;47.182;27.506;2023-07-20T03:20:31;99460.81;;;17.77;100.00
47738;BME280;33502;47.182;27.506;2023-07-20T03:22:56;99480.81;;;17.83;100.00
47738;BME280;33502;47.182;27.506;2023-07-20T03:25:22;99478.63;;;17.88;100.00
47738;BME280;33502;47.182;27.506;2023-07-20T03:27:48;99482.94;;;18.00;100.00
47738;BME280;33502;47.182;27.506;2023-07-20T03:30:14;99482.00;;;18.11;100.00
47738;BME280;33502;47.182;27.506;2023-07-20T03:32:39;99489.22;;;18.20;100.00
47738;BME280;33502;47.182;27.506;2023-07-20T03:35:05;99489.13;;;18.31;100.00
47738;BME280;33502;47.182;27.506;2023-07-20T03:37:31;99489.41;;;18.38;100.00
47738;BME280;33502;47.182;27.506;2023-07-20T03:39:56;99481.44;;;18.48;100.00
47738;BME280;33502;47.182;27.506;2023-07-20T03:42:22;99492.56;;;18.53;100.00
47738;BME280;33502;47.182;27.506;2023-07-20T03:44:48;99481.72;;;18.54;100.00
47738;BME280;33502;47.182;27.506;2023-07-20T03:47:13;99472.72;;;18.55;100.00
47738;BME280;33502;47.182;27.506;2023-07-20T03:49:39;99468.75;;;18.59;100.00
47738;BME280;33502;47.182;27.506;2023-07-20T03:52:05;99465.66;;;18.64;100.00
47738;BME280;33502;47.182;27.506;2023-07-20T03:54:30;99467.63;;;18.72;100.00
47738;BME280;33502;47.182;27.506;2023-07-20T03:56:56;99478.16;;;18.85;100.00
47738;BME280;33502;47.182;27.506;2023-07-20T03:59:22;99470.94;;;18.95;100.00
47738;BME280;33502;47.182;27.506;2023-07-20T04:01:47;99468.84;;;19.08;100.00
47738;BME280;33502;47.182;27.506;2023-07-20T04:04:15;99473.94;;;19.21;100.00
47738;BME280;33502;47.182;27.506;2023-07-20T04:06:41;99474.47;;;19.34;100.00
47738;BME280;33502;47.182;27.506;2023-07-20T04:09:09;99477.44;;;19.41;100.00
47738;BME280;33502;47.182;27.506;2023-07-20T04:11:35;99477.00;;;19.46;100.00
47738;BME280;33502;47.182;27.506;2023-07-20T04:14:00;99486.47;;;19.50;100.00
47738;BME280;33502;47.182;27.506;2023-07-20T04:16:26;99479.53;;;19.57;100.00
47738;BME280;33502;47.182;27.506;2023-07-20T04:18:54;99477.13;;;19.64;100.00
47738;BME280;33502;47.182;27.506;2023-07-20T04:21:20;99485.47;;;19.70;100.00
47738;BME280;33502;47.182;27.506;2023-07-20T04:23:45;99490.13;;;19.78;100.00
47738;BME280;33502;47.182;27.506;2023-07-20T04:26:11;99485.72;;;19.87;100.00
47738;BME280;33502;47.182;27.506;2023-07-20T04:28:38;99492.75;;;19.98;100.00
47738;BME280;33502;47.182;27.506;2023-07-20T04:31:15;99489.34;;;20.05;100.00
47738;BME280;33502;47.182;27.506;2023-07-20T04:33:42;99505.75;;;20.12;100.00
47738;BME280;33502;47.182;27.506;2023-07-20T04:36:08;99514.16;;;20.27;100.00
47738;BME280;33502;47.182;27.506;2023-07-20T04:38:35;99505.16;;;20.46;100.00
47738;BME280;33502;47.182;27.506;2023-07-20T04:41:21;99499.56;;;20.67;100.00
47738;BME280;33502;47.182;27.506;2023-07-20T04:43:48;99499.19;;;20.80;100.00
47738;BME280;33502;47.182;27.506;2023-07-20T04:46:19;99494.28;;;20.93;100.00
47738;BME280;33502;47.182;27.506;2023-07-20T04:48:46;99488.44;;;21.34;100.00
47738;BME280;33502;47.182;27.506;2023-07-20T04:51:14;99491.84;;;21.80;100.00
47738;BME280;33502;47.182;27.506;2023-07-20T04:53:40;99500.84;;;22.15;100.00
47738;BME280;33502;47.182;27.506;2023-07-20T04:56:07;99495.22;;;22.34;100.00
47738;BME280;33502;47.182;27.506;2023-07-20T04:58:33;99501.88;;;22.56;100.00
47738;BME280;33502;47.182;27.506;2023-07-20T05:00:59;99499.03;;;23.09;100.00
47738;BME280;33502;47.182;27.506;2023-07-20T05:03:24;99487.38;;;23.90;100.00
47738;BME280;33502;47.182;27.506;2023-07-20T05:05:50;99497.59;;;24.75;100.00
47738;BME280;33502;47.182;27.506;2023-07-20T05:08:16;99499.63;;;25.51;100.00
47738;BME280;33502;47.182;27.506;2023-07-20T05:10:42;99496.59;;;26.07;100.00
47738;BME280;33502;47.182;27.506;2023-07-20T05:13:08;99502.88;;;26.37;100.00
47738;BME280;33502;47.182;27.506;2023-07-20T05:15:33;99508.38;;;26.73;100.00
47738;BME280;33502;47.182;27.506;2023-07-20T05:18:00;99500.41;;;27.08;100.00
47738;BME280;33502;47.182;27.506;2023-07-20T05:20:26;99499.19;;;27.54;100.00
47738;BME280;33502;47.182;27.506;2023-07-20T05:22:53;99487.44;;;27.75;98.40
47738;BME280;33502;47.182;27.506;2023-07-20T05:25:19;99488.25;;;27.47;100.00
47738;BME280;33502;47.182;27.506;2023-07-20T05:27:47;99491.19;;;27.96;92.98
47738;BME280;33502;47.182;27.506;2023-07-20T05:30:13;99483.03;;;28.02;95.33
47738;BME280;33502;47.182;27.506;2023-07-20T05:32:39;99489.78;;;28.48;93.20
47738;BME280;33502;47.182;27.506;2023-07-20T05:35:04;99494.16;;;28.84;88.74
47738;BME280;33502;47.182;27.506;2023-07-20T05:37:30;99499.22;;;29.00;87.11
47738;BME280;33502;47.182;27.506;2023-07-20T05:39:56;99491.34;;;29.25;83.52
47738;BME280;33502;47.182;27.506;2023-07-20T05:42:21;99498.31;;;29.81;82.07
47738;BME280;33502;47.182;27.506;2023-07-20T05:44:47;99507.72;;;30.12;78.90
47738;BME280;33502;47.182;27.506;2023-07-20T05:47:13;99498.06;;;30.03;78.46
47738;BME280;33502;47.182;27.506;2023-07-20T05:49:39;99509.19;;;29.48;78.57
47738;BME280;33502;47.182;27.506;2023-07-20T05:52:05;99509.00;;;30.03;77.77
47738;BME280;33502;47.182;27.506;2023-07-20T05:54:30;99508.97;;;30.16;77.17
47738;BME280;33502;47.182;27.506;2023-07-20T05:56:56;99508.09;;;30.22;79.22
47738;BME280;33502;47.182;27.506;2023-07-20T05:59:21;99503.88;;;30.47;77.28
47738;BME280;33502;47.182;27.506;2023-07-20T06:01:49;99502.78;;;31.06;73.66
47738;BME280;33502;47.182;27.506;2023-07-20T06:04:14;99495.41;;;31.38;67.92
47738;BME280;33502;47.182;27.506;2023-07-20T06:06:40;99495.03;;;31.35;71.94
47738;BME280;33502;47.182;27.506;2023-07-20T06:09:06;99495.25;;;31.65;67.38
47738;BME280;33502;47.182;27.506;2023-07-20T06:11:35;99493.19;;;31.60;66.92
47738;BME280;33502;47.182;27.506;2023-07-20T06:14:01;99488.25;;;31.69;65.82
47738;BME280;33502;47.182;27.506;2023-07-20T06:16:26;99490.94;;;31.19;66.36
47738;BME280;33502;47.182;27.506;2023-07-20T06:18:52;99495.72;;;31.23;69.03
47738;BME280;33502;47.182;27.506;2023-07-20T06:21:17;99498.91;;;31.77;65.81
47738;BME280;33502;47.182;27.506;2023-07-20T06:23:43;99492.91;;;31.37;64.53
47738;BME280;33502;47.182;27.506;2023-07-20T06:26:08;99484.19;;;31.78;65.80
47738;BME280;33502;47.182;27.506;2023-07-20T06:28:35;99493.53;;;31.07;65.53
47738;BME280;33502;47.182;27.506;2023-07-20T06:31:02;99491.97;;;31.18;66.31
47738;BME280;33502;47.182;27.506;2023-07-20T06:33:27;99493.31;;;31.40;71.61
47738;BME280;33502;47.182;27.506;2023-07-20T06:35:53;99493.13;;;31.67;67.42
47738;BME280;33502;47.182;27.506;2023-07-20T06:38:19;99490.66;;;32.65;66.71
47738;BME280;33502;47.182;27.506;2023-07-20T06:40:48;99500.13;;;33.29;60.51
47738;BME280;33502;47.182;27.506;2023-07-20T06:43:14;99494.84;;;33.16;58.20
47738;BME280;33502;47.182;27.506;2023-07-20T06:45:40;99496.56;;;33.41;55.50
47738;BME280;33502;47.182;27.506;2023-07-20T06:48:06;99506.72;;;33.10;58.96
47738;BME280;33502;47.182;27.506;2023-07-20T06:50:31;99515.31;;;32.65;58.67
47738;BME280;33502;47.182;27.506;2023-07-20T06:52:57;99518.50;;;32.80;58.22
47738;BME280;33502;47.182;27.506;2023-07-20T06:55:24;99514.91;;;32.98;57.07
47738;BME280;33502;47.182;27.506;2023-07-20T06:57:49;99507.88;;;33.02;58.16
47738;BME280;33502;47.182;27.506;2023-07-20T07:00:15;99501.94;;;33.35;56.30
47738;BME280;33502;47.182;27.506;2023-07-20T07:02:41;99491.97;;;33.23;56.63
47738;BME280;33502;47.182;27.506;2023-07-20T07:05:07;99496.47;;;33.59;58.08
47738;BME280;33502;47.182;27.506;2023-07-20T07:07:32;99505.00;;;33.93;54.99
47738;BME280;33502;47.182;27.506;2023-07-20T07:10:00;99495.13;;;33.38;56.32
47738;BME280;33502;47.182;27.506;2023-07-20T07:12:25;99496.19;;;33.79;53.00
47738;BME280;33502;47.182;27.506;2023-07-20T07:14:51;99491.09;;;33.41;55.42
47738;BME280;33502;47.182;27.506;2023-07-20T07:17:17;99488.66;;;33.86;53.41
47738;BME280;33502;47.182;27.506;2023-07-20T07:19:43;99487.56;;;33.76;53.53
47738;BME280;33502;47.182;27.506;2023-07-20T07:22:09;99486.78;;;34.63;52.40
47738;BME280;33502;47.182;27.506;2023-07-20T07:24:35;99489.13;;;34.30;51.06
47738;BME280;33502;47.182;27.506;2023-07-20T07:27:01;99486.63;;;33.70;52.96
47738;BME280;33502;47.182;27.506;2023-07-20T07:29:27;99493.53;;;33.72;53.73
47738;BME280;33502;47.182;27.506;2023-07-20T07:31:53;99488.06;;;34.20;51.89
47738;BME280;33502;47.182;27.506;2023-07-20T07:34:18;99485.75;;;34.40;56.75
47738;BME280;33502;47.182;27.506;2023-07-20T07:36:44;99478.19;;;35.17;50.81
47738;BME280;33502;47.182;27.506;2023-07-20T07:39:10;99477.81;;;35.25;50.29
47738;BME280;33502;47.182;27.506;2023-07-20T07:41:36;99477.72;;;35.37;49.53
47738;BME280;33502;47.182;27.506;2023-07-20T07:44:01;99467.44;;;35.15;49.02
47738;BME280;33502;47.182;27.506;2023-07-20T07:46:27;99485.31;;;34.84;50.16
47738;BME280;33502;47.182;27.506;2023-07-20T07:48:52;99489.06;;;34.54;50.80
47738;BME280;33502;47.182;27.506;2023-07-20T07:51:18;99484.97;;;34.16;51.20
47738;BME280;33502;47.182;27.506;2023-07-20T07:53:45;99483.50;;;34.78;52.12
47738;BME280;33502;47.182;27.506;2023-07-20T07:56:11;99480.09;;;35.62;52.04
47738;BME280;33502;47.182;27.506;2023-07-20T07:58:36;99478.66;;;35.93;47.92
47738;BME280;33502;47.182;27.506;2023-07-20T08:01:02;99485.66;;;35.50;48.74
47738;BME280;33502;47.182;27.506;2023-07-20T08:03:28;99481.25;;;35.49;50.55
47738;BME280;33502;47.182;27.506;2023-07-20T08:05:54;99491.00;;;35.23;47.92
47738;BME280;33502;47.182;27.506;2023-07-20T08:08:20;99481.16;;;35.27;49.72
47738;BME280;33502;47.182;27.506;2023-07-20T08:10:46;99494.34;;;35.42;47.49
47738;BME280;33502;47.182;27.506;2023-07-20T08:13:12;99484.19;;;34.85;48.35
47738;BME280;33502;47.182;27.506;2023-07-20T08:15:39;99488.19;;;34.25;49.10
47738;BME280;33502;47.182;27.506;2023-07-20T08:18:04;99488.16;;;34.01;49.81
47738;BME280;33502;47.182;27.506;2023-07-20T08:20:31;99481.78;;;34.88;50.39
47738;BME280;33502;47.182;27.506;2023-07-20T08:22:57;99473.81;;;35.33;48.55
47738;BME280;33502;47.182;27.506;2023-07-20T08:25:25;99480.16;;;35.67;51.65
47738;BME280;33502;47.182;27.506;2023-07-20T08:27:50;99490.72;;;35.70;45.84
47738;BME280;33502;47.182;27.506;2023-07-20T08:30:16;99480.28;;;35.72;46.17
47738;BME280;33502;47.182;27.506;2023-07-20T08:32:42;99479.50;;;35.77;45.67
47738;BME280;33502;47.182;27.506;2023-07-20T08:35:08;99474.31;;;35.63;45.17
47738;BME280;33502;47.182;27.506;2023-07-20T08:37:34;99467.75;;;35.47;45.92
47738;BME280;33502;47.182;27.506;2023-07-20T08:40:00;99475.47;;;36.18;43.87
47738;BME280;33502;47.182;27.506;2023-07-20T08:42:26;99466.66;;;35.48;45.75
47738;BME280;33502;47.182;27.506;2023-07-20T08:44:52;99466.41;;;34.87;47.54
47738;BME280;33502;47.182;27.506;2023-07-20T08:47:18;99467.66;;;35.59;47.13
47738;BME280;33502;47.182;27.506;2023-07-20T08:49:45;99473.41;;;35.58;46.45
47738;BME280;33502;47.182;27.506;2023-07-20T08:52:13;99473.75;;;35.16;46.29
47738;BME280;33502;47.182;27.506;2023-07-20T08:54:39;99483.59;;;35.40;47.36
47738;BME280;33502;47.182;27.506;2023-07-20T08:57:05;99483.72;;;35.79;44.82
47738;BME280;33502;47.182;27.506;2023-07-20T08:59:31;99485.88;;;36.16;46.45
47738;BME280;33502;47.182;27.506;2023-07-20T09:02:00;99481.72;;;36.31;47.18
47738;BME280;33502;47.182;27.506;2023-07-20T09:04:27;99485.66;;;36.40;44.39
47738;BME280;33502;47.182;27.506;2023-07-20T09:06:53;99481.63;;;36.25;44.04
47738;BME280;33502;47.182;27.506;2023-07-20T09:09:18;99478.38;;;36.73;42.41
47738;BME280;33502;47.182;27.506;2023-07-20T09:11:47;99472.56;;;37.23;43.10
47738;BME280;33502;47.182;27.506;2023-07-20T09:14:14;99475.78;;;37.42;41.94
47738;BME280;33502;47.182;27.506;2023-07-20T09:16:50;99476.16;;;37.24;40.65
47738;BME280;33502;47.182;27.506;2023-07-20T09:19:16;99463.97;;;36.93;42.25
47738;BME280;33502;47.182;27.506;2023-07-20T09:21:44;99463.50;;;36.52;43.06
47738;BME280;33502;47.182;27.506;2023-07-20T09:24:09;99462.53;;;36.02;42.80
47738;BME280;33502;47.182;27.506;2023-07-20T09:26:40;99456.03;;;36.08;44.11
47738;BME280;33502;47.182;27.506;2023-07-20T09:29:07;99457.31;;;35.33;44.85
47738;BME280;33502;47.182;27.506;2023-07-20T09:31:33;99464.88;;;34.97;46.38
47738;BME280;33502;47.182;27.506;2023-07-20T09:33:59;99465.75;;;34.57;48.21
47738;BME280;33502;47.182;27.506;2023-07-20T09:36:26;99466.44;;;34.64;47.79
47738;BME280;33502;47.182;27.506;2023-07-20T09:38:51;99464.91;;;34.68;48.67
47738;BME280;33502;47.182;27.506;2023-07-20T09:41:17;99464.44;;;34.59;48.61
47738;BME280;33502;47.182;27.506;2023-07-20T09:43:46;99470.97;;;34.70;47.32
47738;BME280;33502;47.182;27.506;2023-07-20T09:46:12;99463.84;;;34.69;46.96
47738;BME280;33502;47.182;27.506;2023-07-20T09:48:37;99461.44;;;34.61;47.54
47738;BME280;33502;47.182;27.506;2023-07-20T09:51:03;99468.69;;;34.38;47.29
47738;BME280;33502;47.182;27.506;2023-07-20T09:53:30;99467.13;;;34.42;47.77
47738;BME280;33502;47.182;27.506;2023-07-20T09:55:57;99468.94;;;34.25;47.81
47738;BME280;33502;47.182;27.506;2023-07-20T09:58:23;99460.09;;;34.35;47.34
47738;BME280;33502;47.182;27.506;2023-07-20T10:00:51;99451.88;;;34.23;47.53
47738;BME280;33502;47.182;27.506;2023-07-20T10:03:18;99449.09;;;34.35;48.51
47738;BME280;33502;47.182;27.506;2023-07-20T10:05:46;99458.56;;;34.67;54.83
47738;BME280;33502;47.182;27.506;2023-07-20T10:08:13;99450.47;;;34.89;52.25
47738;BME280;33502;47.182;27.506;2023-07-20T10:10:43;99454.41;;;35.39;49.01
47738;BME280;33502;47.182;27.506;2023-07-20T10:13:10;99448.56;;;35.53;48.22
47738;BME280;33502;47.182;27.506;2023-07-20T10:15:43;99441.72;;;35.72;46.26
47738;BME280;33502;47.182;27.506;2023-07-20T10:21:16;99434.13;;;35.62;45.89
47738;BME280;33502;47.182;27.506;2023-07-20T10:23:42;99433.78;;;35.25;46.04
47738;BME280;33502;47.182;27.506;2023-07-20T10:26:07;99436.75;;;35.06;48.07
47738;BME280;33502;47.182;27.506;2023-07-20T10:28:33;99425.78;;;35.23;46.11
47738;BME280;33502;47.182;27.506;2023-07-20T10:30:59;99427.63;;;35.52;47.98
47738;BME280;33502;47.182;27.506;2023-07-20T10:33:25;99419.50;;;35.79;45.82
47738;BME280;33502;47.182;27.506;2023-07-20T10:36:01;99412.25;;;35.73;44.37
47738;BME280;33502;47.182;27.506;2023-07-20T10:41:18;99405.53;;;35.29;47.80
47738;BME280;33502;47.182;27.506;2023-07-20T10:43:44;99400.72;;;34.74;46.23
47738;BME280;33502;47.182;27.506;2023-07-20T10:46:10;99400.00;;;34.67;46.40
47738;BME280;33502;47.182;27.506;2023-07-20T10:48:36;99397.88;;;34.86;51.26
47738;BME280;33502;47.182;27.506;2023-07-20T10:51:22;99388.13;;;35.24;48.76
47738;BME280;33502;47.182;27.506;2023-07-20T10:53:48;99383.91;;;35.55;47.97
47738;BME280;33502;47.182;27.506;2023-07-20T10:56:15;99380.22;;;35.83;45.42
47738;BME280;33502;47.182;27.506;2023-07-20T10:58:44;99385.47;;;36.07;44.17
47738;BME280;33502;47.182;27.506;2023-07-20T11:01:13;99382.19;;;35.88;44.77
47738;BME280;33502;47.182;27.506;2023-07-20T11:03:39;99380.75;;;36.24;45.05
47738;BME280;33502;47.182;27.506;2023-07-20T11:11:25;99378.63;;;36.32;42.16
47738;BME280;33502;47.182;27.506;2023-07-20T11:13:59;99369.44;;;35.65;42.71
47738;BME280;33502;47.182;27.506;2023-07-20T11:16:35;99367.88;;;35.52;44.57
47738;BME280;33502;47.182;27.506;2023-07-20T11:19:01;99372.63;;;35.06;43.83
47738;BME280;33502;47.182;27.506;2023-07-20T11:21:26;99370.75;;;35.40;45.32
47738;BME280;33502;47.182;27.506;2023-07-20T11:23:53;99368.28;;;35.78;44.92
47738;BME280;33502;47.182;27.506;2023-07-20T11:26:19;99368.63;;;35.81;44.91
47738;BME280;33502;47.182;27.506;2023-07-20T11:28:50;99365.53;;;35.78;44.29
47738;BME280;33502;47.182;27.506;2023-07-20T11:31:19;99359.25;;;36.04;43.55
47738;BME280;33502;47.182;27.506;2023-07-20T11:33:45;99368.44;;;36.10;44.08
47738;BME280;33502;47.182;27.506;2023-07-20T11:36:11;99356.72;;;36.20;43.17
47738;BME280;33502;47.182;27.506;2023-07-20T11:38:38;99350.63;;;36.18;42.77
47738;BME280;33502;47.182;27.506;2023-07-20T11:41:04;99348.69;;;35.74;40.82
47738;BME280;33502;47.182;27.506;2023-07-20T11:43:30;99348.59;;;36.13;39.41
47738;BME280;33502;47.182;27.506;2023-07-20T11:45:56;99347.66;;;36.02;42.17
47738;BME280;33502;47.182;27.506;2023-07-20T11:48:22;99335.63;;;35.47;45.94
47738;BME280;33502;47.182;27.506;2023-07-20T11:50:47;99331.53;;;35.33;46.61
47738;BME280;33502;47.182;27.506;2023-07-20T11:53:14;99329.50;;;35.62;43.03
47738;BME280;33502;47.182;27.506;2023-07-20T11:55:40;99329.97;;;35.76;44.68
47738;BME280;33502;47.182;27.506;2023-07-20T11:58:06;99321.78;;;35.81;46.49
47738;BME280;33502;47.182;27.506;2023-07-20T12:00:32;99326.31;;;35.15;45.64
47738;BME280;33502;47.182;27.506;2023-07-20T12:02:58;99324.13;;;33.97;46.40
47738;BME280;33502;47.182;27.506;2023-07-20T12:05:24;99318.94;;;33.48;49.45
47738;BME280;33502;47.182;27.506;2023-07-20T12:07:50;99328.00;;;33.60;47.08
47738;BME280;33502;47.182;27.506;2023-07-20T12:10:23;99318.06;;;33.83;46.17
47738;BME280;33502;47.182;27.506;2023-07-20T12:12:49;99328.28;;;34.11;45.65
47738;BME280;33502;47.182;27.506;2023-07-20T12:17:48;99324.75;;;34.27;46.85
47738;BME280;33502;47.182;27.506;2023-07-20T12:20:24;99331.41;;;34.31;50.86
47738;BME280;33502;47.182;27.506;2023-07-20T12:22:49;99324.50;;;34.58;50.24
47738;BME280;33502;47.182;27.506;2023-07-20T12:25:15;99322.63;;;34.92;47.41
47738;BME280;33502;47.182;27.506;2023-07-20T12:27:41;99316.72;;;35.34;47.58
47738;BME280;33502;47.182;27.506;2023-07-20T12:30:09;99318.97;;;35.98;43.99
47738;BME280;33502;47.182;27.506;2023-07-20T12:32:35;99322.75;;;35.92;41.33
47738;BME280;33502;47.182;27.506;2023-07-20T12:35:00;99315.88;;;35.34;40.07
47738;BME280;33502;47.182;27.506;2023-07-20T12:37:26;99312.47;;;34.93;42.96
47738;BME280;33502;47.182;27.506;2023-07-20T12:39:52;99312.47;;;35.26;42.24
47738;BME280;33502;47.182;27.506;2023-07-20T12:42:18;99310.22;;;34.89;42.41
47738;BME280;33502;47.182;27.506;2023-07-20T12:44:43;99308.91;;;34.46;42.98
47738;BME280;33502;47.182;27.506;2023-07-20T12:47:09;99305.56;;;34.44;46.26
47738;BME280;33502;47.182;27.506;2023-07-20T12:49:34;99310.66;;;34.24;48.52
47738;BME280;33502;47.182;27.506;2023-07-20T12:52:00;99316.28;;;33.88;50.02
47738;BME280;33502;47.182;27.506;2023-07-20T12:54:26;99314.50;;;33.59;47.63
47738;BME280;33502;47.182;27.506;2023-07-20T12:56:51;99320.47;;;33.44;45.25
47738;BME280;33502;47.182;27.506;2023-07-20T12:59:17;99315.66;;;33.04;52.81
47738;BME280;33502;47.182;27.506;2023-07-20T13:01:42;99319.91;;;32.64;53.71
47738;BME280;33502;47.182;27.506;2023-07-20T13:04:09;99320.13;;;32.32;50.77
47738;BME280;33502;47.182;27.506;2023-07-20T13:06:35;99328.31;;;32.21;50.33